sensor_id;sensor_type;location;lat;lon;timestamp;P1;durP1;ratioP1;P2;durP2;ratioP2
11269;SDS011;5692;48.956;9.200;2023-12-28T00:00:31;207.38;;;197.48;;
11269;SDS011;5692;48.956;9.200;2023-12-28T00:02:57;214.13;;;203.88;;
11269;SDS011;5692;48.956;9.200;2023-12-28T00:05:23;224.13;;;213.40;;
11269;SDS011;5692;48.956;9.200;2023-12-28T00:07:49;215.52;;;205.23;;
11269;SDS011;5692;48.956;9.200;2023-12-28T00:10:22;223.85;;;213.15;;
11269;SDS011;5692;48.956;9.200;2023-12-28T00:12:48;213.73;;;203.52;;
11269;SDS011;5692;48.956;9.200;2023-12-28T00:15:14;216.23;;;205.88;;
11269;SDS011;5692;48.956;9.200;2023-12-28T00:17:40;201.43;;;191.77;;
11269;SDS011;5692;48.956;9.200;2023-12-28T00:20:06;208.75;;;198.77;;
11269;SDS011;5692;48.956;9.200;2023-12-28T00:22:32;213.30;;;203.10;;
11269;SDS011;5692;48.956;9.200;2023-12-28T00:25:02;221.00;;;210.43;;
11269;SDS011;5692;48.956;9.200;2023-12-28T00:27:28;210.18;;;200.10;;
11269;SDS011;5692;48.956;9.200;2023-12-28T00:29:54;228.75;;;217.80;;
11269;SDS011;5692;48.956;9.200;2023-12-28T00:32:20;222.80;;;212.13;;
11269;SDS011;5692;48.956;9.200;2023-12-28T00:34:46;234.70;;;223.48;;
11269;SDS011;5692;48.956;9.200;2023-12-28T00:37:12;213.02;;;202.82;;
11269;SDS011;5692;48.956;9.200;2023-12-28T00:39:40;211.23;;;201.13;;
11269;SDS011;5692;48.956;9.200;2023-12-28T00:42:06;213.27;;;203.07;;
11269;SDS011;5692;48.956;9.200;2023-12-28T00:44:32;216.20;;;205.85;;
11269;SDS011;5692;48.956;9.200;2023-12-28T00:46:58;213.60;;;203.40;;
11269;SDS011;5692;48.956;9.200;2023-12-28T00:49:24;203.73;;;193.98;;
11269;SDS011;5692;48.956;9.200;2023-12-28T00:51:50;209.20;;;199.20;;
11269;SDS011;5692;48.956;9.200;2023-12-28T00:54:16;200.88;;;191.27;;
11269;SDS011;5692;48.956;9.200;2023-12-28T00:56:42;204.52;;;194.73;;
11269;SDS011;5692;48.956;9.200;2023-12-28T00:59:08;210.20;;;200.13;;
11269;SDS011;5692;48.956;9.200;2023-12-28T01:01:34;210.02;;;199.98;;
11269;SDS011;5692;48.956;9.200;2023-12-28T01:04:00;203.35;;;193.63;;
11269;SDS011;5692;48.956;9.200;2023-12-28T01:06:26;209.50;;;199.50;;
11269;SDS011;5692;48.956;9.200;2023-12-28T01:08:54;216.40;;;206.05;;
11269;SDS011;5692;48.956;9.200;2023-12-28T01:11:20;211.60;;;201.50;;
11269;SDS011;5692;48.956;9.200;2023-12-28T01:13:46;213.82;;;203.63;;
11269;SDS011;5692;48.956;9.200;2023-12-28T01:16:12;206.85;;;196.95;;
11269;SDS011;5692;48.956;9.200;2023-12-28T01:18:38;228.65;;;217.73;;
11269;SDS011;5692;48.956;9.200;2023-12-28T01:21:04;216.52;;;206.15;;
11269;SDS011;5692;48.956;9.200;2023-12-28T01:23:31;215.10;;;204.80;;
11269;SDS011;5692;48.956;9.200;2023-12-28T01:25:57;219.85;;;209.32;;
11269;SDS011;5692;48.956;9.200;2023-12-28T01:28:23;225.10;;;214.32;;
11269;SDS011;5692;48.956;9.200;2023-12-28T01:30:49;215.18;;;204.88;;
11269;SDS011;5692;48.956;9.200;2023-12-28T01:33:14;218.82;;;208.38;;
11269;SDS011;5692;48.956;9.200;2023-12-28T01:35:41;208.00;;;198.05;;
11269;SDS011;5692;48.956;9.200;2023-12-28T01:38:07;206.93;;;197.02;;
11269;SDS011;5692;48.956;9.200;2023-12-28T01:40:33;215.70;;;205.40;;
11269;SDS011;5692;48.956;9.200;2023-12-28T01:42:59;217.13;;;206.73;;
11269;SDS011;5692;48.956;9.200;2023-12-28T01:45:25;222.75;;;212.05;;
11269;SDS011;5692;48.956;9.200;2023-12-28T01:47:51;209.25;;;199.23;;
11269;SDS011;5692;48.956;9.200;2023-12-28T01:50:18;211.80;;;201.68;;
11269;SDS011;5692;48.956;9.200;2023-12-28T01:52:44;207.05;;;197.15;;
11269;SDS011;5692;48.956;9.200;2023-12-28T01:55:11;208.52;;;198.52;;
11269;SDS011;5692;48.956;9.200;2023-12-28T01:57:37;222.80;;;212.13;;
11269;SDS011;5692;48.956;9.200;2023-12-28T02:00:03;218.68;;;208.20;;
11269;SDS011;5692;48.956;9.200;2023-12-28T02:02:32;203.13;;;193.40;;
11269;SDS011;5692;48.956;9.200;2023-12-28T02:04:59;211.35;;;201.25;;
11269;SDS011;5692;48.956;9.200;2023-12-28T02:07:25;208.27;;;198.27;;
11269;SDS011;5692;48.956;9.200;2023-12-28T02:09:51;202.10;;;192.43;;
11269;SDS011;5692;48.956;9.200;2023-12-28T02:12:17;210.63;;;200.52;;
11269;SDS011;5692;48.956;9.200;2023-12-28T02:14:43;218.18;;;207.75;;
11269;SDS011;5692;48.956;9.200;2023-12-28T02:17:28;225.73;;;214.93;;
11269;SDS011;5692;48.956;9.200;2023-12-28T02:19:56;211.82;;;201.73;;
11269;SDS011;5692;48.956;9.200;2023-12-28T02:22:26;220.73;;;210.15;;
11269;SDS011;5692;48.956;9.200;2023-12-28T02:25:08;224.10;;;213.40;;
11269;SDS011;5692;48.956;9.200;2023-12-28T02:27:38;206.73;;;196.82;;
11269;SDS011;5692;48.956;9.200;2023-12-28T02:30:05;217.15;;;206.77;;
11269;SDS011;5692;48.956;9.200;2023-12-28T02:32:34;215.32;;;205.00;;
11269;SDS011;5692;48.956;9.200;2023-12-28T02:35:04;219.93;;;209.43;;
11269;SDS011;5692;48.956;9.200;2023-12-28T02:37:32;203.95;;;194.18;;
11269;SDS011;5692;48.956;9.200;2023-12-28T02:39:59;200.05;;;190.45;;
11269;SDS011;5692;48.956;9.200;2023-12-28T02:42:25;207.75;;;197.82;;
11269;SDS011;5692;48.956;9.200;2023-12-28T02:44:51;204.73;;;194.93;;
11269;SDS011;5692;48.956;9.200;2023-12-28T02:47:17;201.95;;;192.25;;
11269;SDS011;5692;48.956;9.200;2023-12-28T02:49:43;202.40;;;192.70;;
11269;SDS011;5692;48.956;9.200;2023-12-28T02:52:09;197.10;;;187.70;;
11269;SDS011;5692;48.956;9.200;2023-12-28T02:54:35;203.93;;;194.18;;
11269;SDS011;5692;48.956;9.200;2023-12-28T02:57:01;199.88;;;190.32;;
11269;SDS011;5692;48.956;9.200;2023-12-28T02:59:27;211.93;;;201.77;;
11269;SDS011;5692;48.956;9.200;2023-12-28T03:01:53;217.07;;;206.68;;
11269;SDS011;5692;48.956;9.200;2023-12-28T03:04:19;206.27;;;196.38;;
11269;SDS011;5692;48.956;9.200;2023-12-28T03:06:46;205.30;;;195.50;;
11269;SDS011;5692;48.956;9.200;2023-12-28T03:09:12;203.18;;;193.45;;
11269;SDS011;5692;48.956;9.200;2023-12-28T03:11:38;199.75;;;190.20;;
11269;SDS011;5692;48.956;9.200;2023-12-28T03:14:04;192.60;;;183.40;;
11269;SDS011;5692;48.956;9.200;2023-12-28T03:16:30;198.73;;;189.23;;
11269;SDS011;5692;48.956;9.200;2023-12-28T03:18:56;204.38;;;194.57;;
11269;SDS011;5692;48.956;9.200;2023-12-28T03:21:21;200.35;;;190.75;;
11269;SDS011;5692;48.956;9.200;2023-12-28T03:23:47;195.00;;;185.68;;
11269;SDS011;5692;48.956;9.200;2023-12-28T03:26:13;197.00;;;187.57;;
11269;SDS011;5692;48.956;9.200;2023-12-28T03:28:39;195.27;;;185.93;;
11269;SDS011;5692;48.956;9.200;2023-12-28T03:31:05;188.60;;;179.60;;
11269;SDS011;5692;48.956;9.200;2023-12-28T03:33:31;199.80;;;190.20;;
11269;SDS011;5692;48.956;9.200;2023-12-28T03:35:57;205.95;;;196.10;;
11269;SDS011;5692;48.956;9.200;2023-12-28T03:38:23;205.35;;;195.52;;
11269;SDS011;5692;48.956;9.200;2023-12-28T03:40:49;202.73;;;193.02;;
11269;SDS011;5692;48.956;9.200;2023-12-28T03:43:16;205.20;;;195.38;;
11269;SDS011;5692;48.956;9.200;2023-12-28T03:45:42;212.30;;;202.10;;
11269;SDS011;5692;48.956;9.200;2023-12-28T03:48:08;208.10;;;198.15;;
11269;SDS011;5692;48.956;9.200;2023-12-28T03:50:34;209.23;;;199.23;;
11269;SDS011;5692;48.956;9.200;2023-12-28T03:53:00;213.38;;;203.18;;
11269;SDS011;5692;48.956;9.200;2023-12-28T03:55:26;215.20;;;204.90;;
11269;SDS011;5692;48.956;9.200;2023-12-28T03:57:52;204.13;;;194.32;;
11269;SDS011;5692;48.956;9.200;2023-12-28T04:00:18;204.93;;;195.13;;
11269;SDS011;5692;48.956;9.200;2023-12-28T04:02:46;221.82;;;211.20;;
11269;SDS011;5692;48.956;9.200;2023-12-28T04:05:11;215.32;;;205.02;;
11269;SDS011;5692;48.956;9.200;2023-12-28T04:07:38;216.07;;;205.75;;
11269;SDS011;5692;48.956;9.200;2023-12-28T04:10:04;218.88;;;208.40;;
11269;SDS011;5692;48.956;9.200;2023-12-28T04:12:30;217.35;;;206.95;;
11269;SDS011;5692;48.956;9.200;2023-12-28T04:14:56;202.10;;;192.40;;
11269;SDS011;5692;48.956;9.200;2023-12-28T04:17:22;219.43;;;208.93;;
11269;SDS011;5692;48.956;9.200;2023-12-28T04:19:48;219.03;;;208.53;;
11269;SDS011;5692;48.956;9.200;2023-12-28T04:22:13;221.57;;;210.98;;
11269;SDS011;5692;48.956;9.200;2023-12-28T04:24:39;212.20;;;202.02;;
11269;SDS011;5692;48.956;9.200;2023-12-28T04:27:05;200.03;;;190.47;;
11269;SDS011;5692;48.956;9.200;2023-12-28T04:29:31;215.00;;;204.70;;
11269;SDS011;5692;48.956;9.200;2023-12-28T04:31:57;208.45;;;198.45;;
11269;SDS011;5692;48.956;9.200;2023-12-28T04:34:23;202.55;;;192.85;;
11269;SDS011;5692;48.956;9.200;2023-12-28T04:36:49;206.38;;;196.48;;
11269;SDS011;5692;48.956;9.200;2023-12-28T04:39:17;195.13;;;185.82;;
11269;SDS011;5692;48.956;9.200;2023-12-28T04:41:43;192.18;;;182.98;;
11269;SDS011;5692;48.956;9.200;2023-12-28T04:44:09;203.88;;;194.13;;
11269;SDS011;5692;48.956;9.200;2023-12-28T04:46:38;207.07;;;197.18;;
11269;SDS011;5692;48.956;9.200;2023-12-28T04:49:10;215.80;;;205.50;;
11269;SDS011;5692;48.956;9.200;2023-12-28T04:51:41;216.73;;;206.32;;
11269;SDS011;5692;48.956;9.200;2023-12-28T04:54:07;205.77;;;195.93;;
11269;SDS011;5692;48.956;9.200;2023-12-28T04:56:33;205.05;;;195.25;;
11269;SDS011;5692;48.956;9.200;2023-12-28T04:58:59;209.10;;;199.10;;
11269;SDS011;5692;48.956;9.200;2023-12-28T05:01:25;208.50;;;198.50;;
11269;SDS011;5692;48.956;9.200;2023-12-28T05:03:53;212.00;;;201.88;;
11269;SDS011;5692;48.956;9.200;2023-12-28T05:06:19;220.25;;;209.75;;
11269;SDS011;5692;48.956;9.200;2023-12-28T05:08:45;207.93;;;197.98;;
11269;SDS011;5692;48.956;9.200;2023-12-28T05:11:11;215.18;;;204.88;;
11269;SDS011;5692;48.956;9.200;2023-12-28T05:13:37;219.45;;;208.93;;
11269;SDS011;5692;48.956;9.200;2023-12-28T05:16:03;208.55;;;198.55;;
11269;SDS011;5692;48.956;9.200;2023-12-28T05:18:29;218.20;;;207.75;;
11269;SDS011;5692;48.956;9.200;2023-12-28T05:20:55;221.45;;;210.85;;
11269;SDS011;5692;48.956;9.200;2023-12-28T05:23:21;213.73;;;203.52;;
11269;SDS011;5692;48.956;9.200;2023-12-28T05:25:47;212.88;;;202.68;;
11269;SDS011;5692;48.956;9.200;2023-12-28T05:28:13;211.80;;;201.70;;
11269;SDS011;5692;48.956;9.200;2023-12-28T05:30:39;216.18;;;205.82;;
11269;SDS011;5692;48.956;9.200;2023-12-28T05:33:05;226.63;;;215.80;;
11269;SDS011;5692;48.956;9.200;2023-12-28T05:35:31;207.70;;;197.75;;
11269;SDS011;5692;48.956;9.200;2023-12-28T05:37:57;209.57;;;199.55;;
11269;SDS011;5692;48.956;9.200;2023-12-28T05:40:23;204.85;;;195.02;;
11269;SDS011;5692;48.956;9.200;2023-12-28T05:42:49;196.30;;;186.90;;
11269;SDS011;5692;48.956;9.200;2023-12-28T05:45:15;197.13;;;187.73;;
11269;SDS011;5692;48.956;9.200;2023-12-28T05:47:41;198.73;;;189.23;;
11269;SDS011;5692;48.956;9.200;2023-12-28T05:50:07;198.55;;;189.05;;
11269;SDS011;5692;48.956;9.200;2023-12-28T05:52:33;194.15;;;184.85;;
11269;SDS011;5692;48.956;9.200;2023-12-28T05:54:59;206.47;;;196.57;;
11269;SDS011;5692;48.956;9.200;2023-12-28T05:57:25;214.05;;;203.80;;
11269;SDS011;5692;48.956;9.200;2023-12-28T05:59:54;224.60;;;213.88;;
11269;SDS011;5692;48.956;9.200;2023-12-28T06:02:20;225.73;;;214.93;;
11269;SDS011;5692;48.956;9.200;2023-12-28T06:04:46;204.70;;;194.90;;
11269;SDS011;5692;48.956;9.200;2023-12-28T06:07:12;209.25;;;199.25;;
11269;SDS011;5692;48.956;9.200;2023-12-28T06:09:38;218.82;;;208.35;;
11269;SDS011;5692;48.956;9.200;2023-12-28T06:12:05;233.63;;;222.45;;
11269;SDS011;5692;48.956;9.200;2023-12-28T06:14:31;220.88;;;210.30;;
11269;SDS011;5692;48.956;9.200;2023-12-28T06:16:57;216.63;;;206.25;;
11269;SDS011;5692;48.956;9.200;2023-12-28T06:19:25;212.03;;;201.90;;
11269;SDS011;5692;48.956;9.200;2023-12-28T06:21:51;221.27;;;210.70;;
11269;SDS011;5692;48.956;9.200;2023-12-28T06:24:19;216.75;;;206.38;;
11269;SDS011;5692;48.956;9.200;2023-12-28T06:26:45;229.90;;;218.90;;
11269;SDS011;5692;48.956;9.200;2023-12-28T06:29:11;213.07;;;202.88;;
11269;SDS011;5692;48.956;9.200;2023-12-28T06:31:37;226.20;;;215.38;;
11269;SDS011;5692;48.956;9.200;2023-12-28T06:34:03;231.35;;;220.27;;
11269;SDS011;5692;48.956;9.200;2023-12-28T06:36:29;225.98;;;215.18;;
11269;SDS011;5692;48.956;9.200;2023-12-28T06:38:56;238.63;;;227.23;;
11269;SDS011;5692;48.956;9.200;2023-12-28T06:41:22;234.23;;;223.02;;
11269;SDS011;5692;48.956;9.200;2023-12-28T06:43:48;239.40;;;227.95;;
11269;SDS011;5692;48.956;9.200;2023-12-28T06:46:14;232.07;;;220.95;;
11269;SDS011;5692;48.956;9.200;2023-12-28T06:48:40;232.32;;;221.23;;
11269;SDS011;5692;48.956;9.200;2023-12-28T06:51:08;218.05;;;207.63;;
11269;SDS011;5692;48.956;9.200;2023-12-28T06:53:34;229.20;;;218.23;;
11269;SDS011;5692;48.956;9.200;2023-12-28T06:56:00;228.73;;;217.82;;
11269;SDS011;5692;48.956;9.200;2023-12-28T06:58:26;221.48;;;210.88;;
11269;SDS011;5692;48.956;9.200;2023-12-28T07:00:52;232.18;;;221.07;;
11269;SDS011;5692;48.956;9.200;2023-12-28T07:03:22;213.38;;;203.18;;
11269;SDS011;5692;48.956;9.200;2023-12-28T07:05:50;231.63;;;220.55;;
11269;SDS011;5692;48.956;9.200;2023-12-28T07:08:16;226.63;;;215.82;;
11269;SDS011;5692;48.956;9.200;2023-12-28T07:10:42;220.20;;;209.67;;
11269;SDS011;5692;48.956;9.200;2023-12-28T07:13:08;218.82;;;208.32;;
11269;SDS011;5692;48.956;9.200;2023-12-28T07:15:34;217.98;;;207.55;;
11269;SDS011;5692;48.956;9.200;2023-12-28T07:18:00;228.95;;;218.00;;
11269;SDS011;5692;48.956;9.200;2023-12-28T07:20:26;226.70;;;215.88;;
11269;SDS011;5692;48.956;9.200;2023-12-28T07:22:52;231.70;;;220.60;;
11269;SDS011;5692;48.956;9.200;2023-12-28T07:25:18;218.15;;;207.73;;
11269;SDS011;5692;48.956;9.200;2023-12-28T07:27:44;224.57;;;213.85;;
11269;SDS011;5692;48.956;9.200;2023-12-28T07:30:10;233.00;;;221.85;;
11269;SDS011;5692;48.956;9.200;2023-12-28T07:32:36;242.07;;;230.48;;
11269;SDS011;5692;48.956;9.200;2023-12-28T07:35:02;228.03;;;217.13;;
11269;SDS011;5692;48.956;9.200;2023-12-28T07:37:29;242.57;;;230.98;;
11269;SDS011;5692;48.956;9.200;2023-12-28T07:39:55;232.25;;;221.15;;
11269;SDS011;5692;48.956;9.200;2023-12-28T07:42:22;234.05;;;222.85;;
11269;SDS011;5692;48.956;9.200;2023-12-28T07:44:48;231.43;;;220.35;;
11269;SDS011;5692;48.956;9.200;2023-12-28T07:47:14;215.00;;;204.70;;
11269;SDS011;5692;48.956;9.200;2023-12-28T07:49:40;220.10;;;209.57;;
11269;SDS011;5692;48.956;9.200;2023-12-28T07:52:06;206.15;;;196.27;;
11269;SDS011;5692;48.956;9.200;2023-12-28T07:54:32;222.03;;;211.40;;
11269;SDS011;5692;48.956;9.200;2023-12-28T07:56:59;241.67;;;230.10;;
11269;SDS011;5692;48.956;9.200;2023-12-28T07:59:25;223.15;;;212.45;;
11269;SDS011;5692;48.956;9.200;2023-12-28T08:01:51;222.63;;;211.98;;
11269;SDS011;5692;48.956;9.200;2023-12-28T08:04:17;222.57;;;211.93;;
11269;SDS011;5692;48.956;9.200;2023-12-28T08:06:43;229.75;;;218.75;;
11269;SDS011;5692;48.956;9.200;2023-12-28T08:09:09;234.50;;;223.30;;
11269;SDS011;5692;48.956;9.200;2023-12-28T08:11:35;231.63;;;220.52;;
11269;SDS011;5692;48.956;9.200;2023-12-28T08:14:01;233.32;;;222.18;;
11269;SDS011;5692;48.956;9.200;2023-12-28T08:16:27;229.68;;;218.68;;
11269;SDS011;5692;48.956;9.200;2023-12-28T08:18:53;246.32;;;234.55;;
11269;SDS011;5692;48.956;9.200;2023-12-28T08:21:19;242.63;;;231.03;;
11269;SDS011;5692;48.956;9.200;2023-12-28T08:23:45;247.88;;;236.02;;
11269;SDS011;5692;48.956;9.200;2023-12-28T08:26:11;257.23;;;244.93;;
11269;SDS011;5692;48.956;9.200;2023-12-28T08:28:37;241.15;;;229.65;;
11269;SDS011;5692;48.956;9.200;2023-12-28T08:31:03;236.30;;;225.00;;
11269;SDS011;5692;48.956;9.200;2023-12-28T08:33:29;242.27;;;230.70;;
11269;SDS011;5692;48.956;9.200;2023-12-28T08:35:55;214.05;;;203.80;;
11269;SDS011;5692;48.956;9.200;2023-12-28T08:38:21;224.50;;;213.75;;
11269;SDS011;5692;48.956;9.200;2023-12-28T08:40:47;239.18;;;227.75;;
11269;SDS011;5692;48.956;9.200;2023-12-28T08:43:13;234.23;;;223.02;;
11269;SDS011;5692;48.956;9.200;2023-12-28T08:45:39;229.15;;;218.18;;
11269;SDS011;5692;48.956;9.200;2023-12-28T08:48:05;241.77;;;230.20;;
11269;SDS011;5692;48.956;9.200;2023-12-28T08:50:31;237.65;;;226.25;;
11269;SDS011;5692;48.956;9.200;2023-12-28T08:52:57;244.50;;;232.80;;
11269;SDS011;5692;48.956;9.200;2023-12-28T08:55:23;246.52;;;234.73;;
11269;SDS011;5692;48.956;9.200;2023-12-28T08:57:49;226.93;;;216.07;;
11269;SDS011;5692;48.956;9.200;2023-12-28T09:00:15;227.80;;;216.90;;
11269;SDS011;5692;48.956;9.200;2023-12-28T09:02:41;229.50;;;218.50;;
11269;SDS011;5692;48.956;9.200;2023-12-28T09:05:08;237.07;;;225.73;;
11269;SDS011;5692;48.956;9.200;2023-12-28T09:07:34;211.82;;;201.68;;
11269;SDS011;5692;48.956;9.200;2023-12-28T09:10:03;224.35;;;213.65;;
11269;SDS011;5692;48.956;9.200;2023-12-28T09:12:32;238.80;;;227.40;;
11269;SDS011;5692;48.956;9.200;2023-12-28T09:14:58;226.55;;;215.73;;
11269;SDS011;5692;48.956;9.200;2023-12-28T09:17:24;232.70;;;221.60;;
11269;SDS011;5692;48.956;9.200;2023-12-28T09:19:50;239.52;;;228.07;;
11269;SDS011;5692;48.956;9.200;2023-12-28T09:22:16;230.35;;;219.35;;
11269;SDS011;5692;48.956;9.200;2023-12-28T09:24:42;244.20;;;232.55;;
11269;SDS011;5692;48.956;9.200;2023-12-28T09:27:08;229.05;;;218.10;;
11269;SDS011;5692;48.956;9.200;2023-12-28T09:29:34;226.35;;;215.52;;
11269;SDS011;5692;48.956;9.200;2023-12-28T09:32:00;238.98;;;227.55;;
11269;SDS011;5692;48.956;9.200;2023-12-28T09:34:26;247.60;;;235.80;;
11269;SDS011;5692;48.956;9.200;2023-12-28T09:36:52;240.20;;;228.70;;
11269;SDS011;5692;48.956;9.200;2023-12-28T09:39:18;243.52;;;231.88;;
11269;SDS011;5692;48.956;9.200;2023-12-28T09:41:46;250.80;;;238.82;;
11269;SDS011;5692;48.956;9.200;2023-12-28T09:44:15;252.55;;;240.45;;
11269;SDS011;5692;48.956;9.200;2023-12-28T09:46:44;255.85;;;243.63;;
11269;SDS011;5692;48.956;9.200;2023-12-28T09:49:11;247.65;;;235.80;;
11269;SDS011;5692;48.956;9.200;2023-12-28T09:51:37;249.27;;;237.38;;
11269;SDS011;5692;48.956;9.200;2023-12-28T09:54:03;263.23;;;250.63;;
11269;SDS011;5692;48.956;9.200;2023-12-28T09:56:30;252.40;;;240.30;;
11269;SDS011;5692;48.956;9.200;2023-12-28T09:58:57;252.63;;;240.52;;
11269;SDS011;5692;48.956;9.200;2023-12-28T10:01:24;262.35;;;249.80;;
11269;SDS011;5692;48.956;9.200;2023-12-28T10:03:50;254.68;;;242.48;;
11269;SDS011;5692;48.956;9.200;2023-12-28T10:06:16;251.38;;;239.38;;
11269;SDS011;5692;48.956;9.200;2023-12-28T10:08:46;252.43;;;240.35;;
11269;SDS011;5692;48.956;9.200;2023-12-28T10:11:13;244.30;;;232.60;;
11269;SDS011;5692;48.956;9.200;2023-12-28T10:13:40;250.88;;;238.88;;
11269;SDS011;5692;48.956;9.200;2023-12-28T10:16:09;254.82;;;242.63;;
11269;SDS011;5692;48.956;9.200;2023-12-28T10:18:35;255.35;;;243.15;;
11269;SDS011;5692;48.956;9.200;2023-12-28T10:21:01;253.27;;;241.18;;
11269;SDS011;5692;48.956;9.200;2023-12-28T10:23:30;251.13;;;239.13;;
11269;SDS011;5692;48.956;9.200;2023-12-28T10:25:56;266.08;;;253.38;;
11269;SDS011;5692;48.956;9.200;2023-12-28T10:28:22;246.93;;;235.10;;
11269;SDS011;5692;48.956;9.200;2023-12-28T10:30:53;248.77;;;236.88;;
11269;SDS011;5692;48.956;9.200;2023-12-28T10:33:20;255.35;;;243.15;;
11269;SDS011;5692;48.956;9.200;2023-12-28T10:35:45;267.45;;;254.65;;
11269;SDS011;5692;48.956;9.200;2023-12-28T10:38:12;267.70;;;254.90;;
11269;SDS011;5692;48.956;9.200;2023-12-28T10:40:39;252.77;;;240.68;;
11269;SDS011;5692;48.956;9.200;2023-12-28T10:43:06;262.77;;;250.18;;
11269;SDS011;5692;48.956;9.200;2023-12-28T10:45:34;267.73;;;254.93;;
11269;SDS011;5692;48.956;9.200;2023-12-28T10:48:07;274.77;;;261.65;;
11269;SDS011;5692;48.956;9.200;2023-12-28T10:50:40;259.13;;;246.73;;
11269;SDS011;5692;48.956;9.200;2023-12-28T10:53:10;247.43;;;235.60;;
11269;SDS011;5692;48.956;9.200;2023-12-28T10:58:21;259.80;;;247.40;;
11269;SDS011;5692;48.956;9.200;2023-12-28T11:00:56;254.88;;;242.68;;
11269;SDS011;5692;48.956;9.200;2023-12-28T11:03:27;273.63;;;260.55;;
11269;SDS011;5692;48.956;9.200;2023-12-28T11:05:53;261.80;;;249.30;;
11269;SDS011;5692;48.956;9.200;2023-12-28T11:08:21;271.95;;;258.95;;
11269;SDS011;5692;48.956;9.200;2023-12-28T11:10:47;260.88;;;248.40;;
11269;SDS011;5692;48.956;9.200;2023-12-28T11:13:13;261.27;;;248.77;;
11269;SDS011;5692;48.956;9.200;2023-12-28T11:15:43;273.17;;;260.10;;
11269;SDS011;5692;48.956;9.200;2023-12-28T11:18:10;259.27;;;246.88;;
11269;SDS011;5692;48.956;9.200;2023-12-28T11:20:36;261.52;;;249.02;;
11269;SDS011;5692;48.956;9.200;2023-12-28T11:23:05;264.73;;;252.05;;
11269;SDS011;5692;48.956;9.200;2023-12-28T11:25:31;275.45;;;262.27;;
11269;SDS011;5692;48.956;9.200;2023-12-28T11:27:58;270.85;;;257.90;;
11269;SDS011;5692;48.956;9.200;2023-12-28T11:30:27;267.23;;;254.43;;
11269;SDS011;5692;48.956;9.200;2023-12-28T11:32:56;263.40;;;250.80;;
11269;SDS011;5692;48.956;9.200;2023-12-28T11:35:23;253.88;;;241.73;;
11269;SDS011;5692;48.956;9.200;2023-12-28T11:37:51;259.25;;;246.85;;
11269;SDS011;5692;48.956;9.200;2023-12-28T11:40:17;257.42;;;245.13;;
11269;SDS011;5692;48.956;9.200;2023-12-28T11:42:47;249.55;;;237.63;;
11269;SDS011;5692;48.956;9.200;2023-12-28T11:45:14;231.50;;;220.43;;
11269;SDS011;5692;48.956;9.200;2023-12-28T11:47:41;237.60;;;226.25;;
11269;SDS011;5692;48.956;9.200;2023-12-28T11:50:07;239.30;;;227.85;;
11269;SDS011;5692;48.956;9.200;2023-12-28T11:52:34;247.40;;;235.57;;
11269;SDS011;5692;48.956;9.200;2023-12-28T11:55:00;246.93;;;235.13;;
11269;SDS011;5692;48.956;9.200;2023-12-28T11:57:26;230.52;;;219.50;;
11269;SDS011;5692;48.956;9.200;2023-12-28T11:59:56;237.45;;;226.05;;
11269;SDS011;5692;48.956;9.200;2023-12-28T12:02:22;242.98;;;231.35;;
11269;SDS011;5692;48.956;9.200;2023-12-28T12:04:49;239.25;;;227.80;;
11269;SDS011;5692;48.956;9.200;2023-12-28T12:07:17;230.02;;;219.02;;
11269;SDS011;5692;48.956;9.200;2023-12-28T12:09:43;234.50;;;223.30;;
11269;SDS011;5692;48.956;9.200;2023-12-28T12:12:10;231.63;;;220.52;;
11269;SDS011;5692;48.956;9.200;2023-12-28T12:14:36;233.07;;;221.93;;
11269;SDS011;5692;48.956;9.200;2023-12-28T12:17:03;231.82;;;220.73;;
11269;SDS011;5692;48.956;9.200;2023-12-28T12:19:29;234.25;;;223.05;;
11269;SDS011;5692;48.956;9.200;2023-12-28T12:21:55;237.63;;;226.25;;
11269;SDS011;5692;48.956;9.200;2023-12-28T12:24:22;240.93;;;229.40;;
11269;SDS011;5692;48.956;9.200;2023-12-28T12:26:51;235.18;;;223.93;;
11269;SDS011;5692;48.956;9.200;2023-12-28T12:29:17;257.33;;;245.00;;
11269;SDS011;5692;48.956;9.200;2023-12-28T12:31:44;259.60;;;247.20;;
11269;SDS011;5692;48.956;9.200;2023-12-28T12:34:10;249.20;;;237.30;;
11269;SDS011;5692;48.956;9.200;2023-12-28T12:36:37;262.83;;;250.27;;
11269;SDS011;5692;48.956;9.200;2023-12-28T12:39:03;259.25;;;246.85;;
11269;SDS011;5692;48.956;9.200;2023-12-28T12:41:33;262.60;;;250.05;;
11269;SDS011;5692;48.956;9.200;2023-12-28T12:44:02;253.88;;;241.75;;
11269;SDS011;5692;48.956;9.200;2023-12-28T12:46:29;266.27;;;253.57;;
11269;SDS011;5692;48.956;9.200;2023-12-28T12:48:56;283.25;;;269.73;;
11269;SDS011;5692;48.956;9.200;2023-12-28T12:51:25;253.05;;;240.95;;
11269;SDS011;5692;48.956;9.200;2023-12-28T12:53:57;251.45;;;239.43;;
11269;SDS011;5692;48.956;9.200;2023-12-28T12:56:25;263.92;;;251.32;;
11269;SDS011;5692;48.956;9.200;2023-12-28T12:58:51;263.88;;;251.27;;
11269;SDS011;5692;48.956;9.200;2023-12-28T13:01:17;262.25;;;249.70;;
11269;SDS011;5692;48.956;9.200;2023-12-28T13:03:45;262.20;;;249.65;;
11269;SDS011;5692;48.956;9.200;2023-12-28T13:06:11;260.23;;;247.77;;
11269;SDS011;5692;48.956;9.200;2023-12-28T13:08:37;284.40;;;270.80;;
11269;SDS011;5692;48.956;9.200;2023-12-28T13:11:03;285.83;;;272.17;;
11269;SDS011;5692;48.956;9.200;2023-12-28T13:13:31;278.80;;;265.50;;
11269;SDS011;5692;48.956;9.200;2023-12-28T13:15:57;279.75;;;266.40;;
11269;SDS011;5692;48.956;9.200;2023-12-28T13:18:23;265.52;;;252.82;;
11269;SDS011;5692;48.956;9.200;2023-12-28T13:20:50;276.80;;;263.58;;
11269;SDS011;5692;48.956;9.200;2023-12-28T13:23:16;268.63;;;255.80;;
11269;SDS011;5692;48.956;9.200;2023-12-28T13:25:42;279.23;;;265.88;;
11269;SDS011;5692;48.956;9.200;2023-12-28T13:28:09;277.98;;;264.67;;
11269;SDS011;5692;48.956;9.200;2023-12-28T13:30:35;272.45;;;259.42;;
11269;SDS011;5692;48.956;9.200;2023-12-28T13:33:11;274.15;;;261.05;;
11269;SDS011;5692;48.956;9.200;2023-12-28T13:35:37;284.92;;;271.33;;
11269;SDS011;5692;48.956;9.200;2023-12-28T13:38:03;272.85;;;259.83;;
11269;SDS011;5692;48.956;9.200;2023-12-28T13:40:30;277.42;;;264.17;;
11269;SDS011;5692;48.956;9.200;2023-12-28T13:42:56;278.83;;;265.52;;
11269;SDS011;5692;48.956;9.200;2023-12-28T13:45:22;288.00;;;274.23;;
11269;SDS011;5692;48.956;9.200;2023-12-28T13:47:49;277.38;;;264.10;;
11269;SDS011;5692;48.956;9.200;2023-12-28T13:50:15;279.48;;;266.13;;
11269;SDS011;5692;48.956;9.200;2023-12-28T13:52:41;281.27;;;267.85;;
11269;SDS011;5692;48.956;9.200;2023-12-28T13:55:07;284.52;;;270.92;;
11269;SDS011;5692;48.956;9.200;2023-12-28T13:57:33;290.48;;;276.60;;
11269;SDS011;5692;48.956;9.200;2023-12-28T13:59:59;292.75;;;278.75;;
11269;SDS011;5692;48.956;9.200;2023-12-28T14:02:26;284.58;;;270.98;;
11269;SDS011;5692;48.956;9.200;2023-12-28T14:04:52;288.25;;;274.48;;
11269;SDS011;5692;48.956;9.200;2023-12-28T14:07:24;287.73;;;273.98;;